sensor_id;sensor_type;location;lat;lon;timestamp;pressure;altitude;pressure_sealevel;temperature
73937;BMP180;59249;59.736;30.568;2023-11-19T00:00:39;101687.00;;;-5.90
73937;BMP180;59249;59.736;30.568;2023-11-19T00:03:19;101690.00;;;-5.90
73937;BMP180;59249;59.736;30.568;2023-11-19T00:05:48;101697.00;;;-5.80
73937;BMP180;59249;59.736;30.568;2023-11-19T00:08:17;101688.00;;;-5.80
73937;BMP180;59249;59.736;30.568;2023-11-19T00:10:48;101700.00;;;-5.80
73937;BMP180;59249;59.736;30.568;2023-11-19T00:13:18;101695.00;;;-5.80
73937;BMP180;59249;59.736;30.568;2023-11-19T00:15:47;101693.00;;;-5.80
73937;BMP180;59249;59.736;30.568;2023-11-19T00:18:16;101687.00;;;-5.80
73937;BMP180;59249;59.736;30.568;2023-11-19T00:20:45;101684.00;;;-5.80
73937;BMP180;59249;59.736;30.568;2023-11-19T00:23:14;101676.00;;;-5.80
73937;BMP180;59249;59.736;30.568;2023-11-19T00:25:43;101672.00;;;-5.80
73937;BMP180;59249;59.736;30.568;2023-11-19T00:28:13;101681.00;;;-5.80
73937;BMP180;59249;59.736;30.568;2023-11-19T00:30:42;101669.00;;;-5.80
73937;BMP180;59249;59.736;30.568;2023-11-19T00:33:11;101660.00;;;-5.80
73937;BMP180;59249;59.736;30.568;2023-11-19T00:35:40;101655.00;;;-5.80
73937;BMP180;59249;59.736;30.568;2023-11-19T00:38:09;101646.00;;;-5.80
73937;BMP180;59249;59.736;30.568;2023-11-19T00:40:37;101650.00;;;-5.70
73937;BMP180;59249;59.736;30.568;2023-11-19T00:43:08;101642.00;;;-5.80
73937;BMP180;59249;59.736;30.568;2023-11-19T00:45:38;101643.00;;;-5.70
73937;BMP180;59249;59.736;30.568;2023-11-19T00:48:07;101638.00;;;-5.70
73937;BMP180;59249;59.736;30.568;2023-11-19T00:50:35;101646.00;;;-5.80
73937;BMP180;59249;59.736;30.568;2023-11-19T00:53:06;101649.00;;;-5.80
73937;BMP180;59249;59.736;30.568;2023-11-19T00:55:35;101648.00;;;-5.70
73937;BMP180;59249;59.736;30.568;2023-11-19T00:58:13;101644.00;;;-5.80
73937;BMP180;59249;59.736;30.568;2023-11-19T01:00:43;101648.00;;;-5.80
73937;BMP180;59249;59.736;30.568;2023-11-19T01:03:12;101649.00;;;-5.70
73937;BMP180;59249;59.736;30.568;2023-11-19T01:05:42;101641.00;;;-5.70
73937;BMP180;59249;59.736;30.568;2023-11-19T01:08:14;101642.00;;;-5.70
73937;BMP180;59249;59.736;30.568;2023-11-19T01:10:43;101636.00;;;-5.70
73937;BMP180;59249;59.736;30.568;2023-11-19T01:13:12;101635.00;;;-5.60
73937;BMP180;59249;59.736;30.568;2023-11-19T01:15:41;101642.00;;;-5.70
73937;BMP180;59249;59.736;30.568;2023-11-19T01:18:11;101649.00;;;-5.70
73937;BMP180;59249;59.736;30.568;2023-11-19T01:20:40;101643.00;;;-5.70
73937;BMP180;59249;59.736;30.568;2023-11-19T01:23:09;101636.00;;;-5.60
73937;BMP180;59249;59.736;30.568;2023-11-19T01:25:37;101637.00;;;-5.60
73937;BMP180;59249;59.736;30.568;2023-11-19T01:28:06;101627.00;;;-5.60
73937;BMP180;59249;59.736;30.568;2023-11-19T01:30:35;101633.00;;;-5.60
73937;BMP180;59249;59.736;30.568;2023-11-19T01:33:05;101634.00;;;-5.60
73937;BMP180;59249;59.736;30.568;2023-11-19T01:35:34;101640.00;;;-5.50
73937;BMP180;59249;59.736;30.568;2023-11-19T01:38:03;101637.00;;;-5.50
73937;BMP180;59249;59.736;30.568;2023-11-19T01:40:32;101628.00;;;-5.50
73937;BMP180;59249;59.736;30.568;2023-11-19T01:43:01;101632.00;;;-5.50
73937;BMP180;59249;59.736;30.568;2023-11-19T01:45:31;101627.00;;;-5.50
73937;BMP180;59249;59.736;30.568;2023-11-19T01:48:02;101632.00;;;-5.40
73937;BMP180;59249;59.736;30.568;2023-11-19T01:50:34;101629.00;;;-5.40
73937;BMP180;59249;59.736;30.568;2023-11-19T01:53:03;101623.00;;;-5.40
73937;BMP180;59249;59.736;30.568;2023-11-19T01:55:32;101620.00;;;-5.50
73937;BMP180;59249;59.736;30.568;2023-11-19T01:58:01;101617.00;;;-5.50
73937;BMP180;59249;59.736;30.568;2023-11-19T02:00:30;101612.00;;;-5.60
73937;BMP180;59249;59.736;30.568;2023-11-19T02:03:01;101613.00;;;-5.50
73937;BMP180;59249;59.736;30.568;2023-11-19T02:05:34;101608.00;;;-5.40
73937;BMP180;59249;59.736;30.568;2023-11-19T02:08:03;101606.00;;;-5.50
73937;BMP180;59249;59.736;30.568;2023-11-19T02:10:32;101603.00;;;-5.50
73937;BMP180;59249;59.736;30.568;2023-11-19T02:13:01;101603.00;;;-5.40
73937;BMP180;59249;59.736;30.568;2023-11-19T02:15:34;101593.00;;;-5.40
73937;BMP180;59249;59.736;30.568;2023-11-19T02:18:19;101607.00;;;-5.30
73937;BMP180;59249;59.736;30.568;2023-11-19T02:20:51;101593.00;;;-5.40
73937;BMP180;59249;59.736;30.568;2023-11-19T02:23:21;101599.00;;;-5.40
73937;BMP180;59249;59.736;30.568;2023-11-19T02:26:02;101604.00;;;-5.40
73937;BMP180;59249;59.736;30.568;2023-11-19T02:28:40;101601.00;;;-5.40
73937;BMP180;59249;59.736;30.568;2023-11-19T02:31:10;101604.00;;;-5.50
73937;BMP180;59249;59.736;30.568;2023-11-19T02:33:40;101602.00;;;-5.50
73937;BMP180;59249;59.736;30.568;2023-11-19T02:36:09;101602.00;;;-5.40
73937;BMP180;59249;59.736;30.568;2023-11-19T02:38:38;101591.00;;;-5.40
73937;BMP180;59249;59.736;30.568;2023-11-19T02:41:07;101596.00;;;-5.50
73937;BMP180;59249;59.736;30.568;2023-11-19T02:43:37;101598.00;;;-5.50
73937;BMP180;59249;59.736;30.568;2023-11-19T02:46:07;101602.00;;;-5.40
73937;BMP180;59249;59.736;30.568;2023-11-19T02:48:39;101599.00;;;-5.40
73937;BMP180;59249;59.736;30.568;2023-11-19T02:51:09;101601.00;;;-5.30
73937;BMP180;59249;59.736;30.568;2023-11-19T02:53:38;101601.00;;;-5.40
73937;BMP180;59249;59.736;30.568;2023-11-19T02:56:08;101591.00;;;-5.30
73937;BMP180;59249;59.736;30.568;2023-11-19T02:58:47;101580.00;;;-5.30
73937;BMP180;59249;59.736;30.568;2023-11-19T03:01:23;101585.00;;;-5.30
73937;BMP180;59249;59.736;30.568;2023-11-19T03:03:59;101593.00;;;-5.30
73937;BMP180;59249;59.736;30.568;2023-11-19T03:06:30;101577.00;;;-5.30
73937;BMP180;59249;59.736;30.568;2023-11-19T03:08:59;101574.00;;;-5.30
73937;BMP180;59249;59.736;30.568;2023-11-19T03:11:33;101572.00;;;-5.20
73937;BMP180;59249;59.736;30.568;2023-11-19T03:14:03;101569.00;;;-5.30
73937;BMP180;59249;59.736;30.568;2023-11-19T03:16:33;101562.00;;;-5.30
73937;BMP180;59249;59.736;30.568;2023-11-19T03:19:02;101557.00;;;-5.20
73937;BMP180;59249;59.736;30.568;2023-11-19T03:21:31;101550.00;;;-5.30
73937;BMP180;59249;59.736;30.568;2023-11-19T03:24:01;101549.00;;;-5.20
73937;BMP180;59249;59.736;30.568;2023-11-19T03:26:30;101551.00;;;-5.20
73937;BMP180;59249;59.736;30.568;2023-11-19T03:29:01;101555.00;;;-5.20
73937;BMP180;59249;59.736;30.568;2023-11-19T03:31:30;101550.00;;;-5.30
73937;BMP180;59249;59.736;30.568;2023-11-19T03:34:00;101543.00;;;-5.30
73937;BMP180;59249;59.736;30.568;2023-11-19T03:36:32;101546.00;;;-5.20
73937;BMP180;59249;59.736;30.568;2023-11-19T03:39:01;101554.00;;;-5.30
73937;BMP180;59249;59.736;30.568;2023-11-19T03:41:30;101545.00;;;-5.30
73937;BMP180;59249;59.736;30.568;2023-11-19T03:44:02;101542.00;;;-5.20
73937;BMP180;59249;59.736;30.568;2023-11-19T03:46:31;101548.00;;;-5.30
73937;BMP180;59249;59.736;30.568;2023-11-19T03:49:02;101546.00;;;-5.30
73937;BMP180;59249;59.736;30.568;2023-11-19T03:51:33;101547.00;;;-5.30
73937;BMP180;59249;59.736;30.568;2023-11-19T03:54:03;101545.00;;;-5.30
73937;BMP180;59249;59.736;30.568;2023-11-19T03:56:33;101543.00;;;-5.30
73937;BMP180;59249;59.736;30.568;2023-11-19T03:59:02;101540.00;;;-5.30
73937;BMP180;59249;59.736;30.568;2023-11-19T04:01:31;101540.00;;;-5.20
73937;BMP180;59249;59.736;30.568;2023-11-19T04:04:01;101536.00;;;-5.30
73937;BMP180;59249;59.736;30.568;2023-11-19T04:06:30;101537.00;;;-5.30
73937;BMP180;59249;59.736;30.568;2023-11-19T04:08:59;101528.00;;;-5.30
73937;BMP180;59249;59.736;30.568;2023-11-19T04:11:28;101536.00;;;-5.20
73937;BMP180;59249;59.736;30.568;2023-11-19T04:13:57;101534.00;;;-5.30
73937;BMP180;59249;59.736;30.568;2023-11-19T04:16:26;101525.00;;;-5.30
73937;BMP180;59249;59.736;30.568;2023-11-19T04:18:57;101533.00;;;-5.20
73937;BMP180;59249;59.736;30.568;2023-11-19T04:21:27;101530.00;;;-5.20
73937;BMP180;59249;59.736;30.568;2023-11-19T04:23:56;101539.00;;;-5.20
73937;BMP180;59249;59.736;30.568;2023-11-19T04:26:25;101534.00;;;-5.30
73937;BMP180;59249;59.736;30.568;2023-11-19T04:28:56;101543.00;;;-5.30
73937;BMP180;59249;59.736;30.568;2023-11-19T04:31:29;101529.00;;;-5.20
73937;BMP180;59249;59.736;30.568;2023-11-19T04:33:58;101534.00;;;-5.20
73937;BMP180;59249;59.736;30.568;2023-11-19T04:36:29;101526.00;;;-5.20
73937;BMP180;59249;59.736;30.568;2023-11-19T04:38:58;101515.00;;;-5.20
73937;BMP180;59249;59.736;30.568;2023-11-19T04:41:28;101525.00;;;-5.20
73937;BMP180;59249;59.736;30.568;2023-11-19T04:43:57;101522.00;;;-5.20
73937;BMP180;59249;59.736;30.568;2023-11-19T04:46:26;101512.00;;;-5.20
73937;BMP180;59249;59.736;30.568;2023-11-19T04:48:54;101515.00;;;-5.10
73937;BMP180;59249;59.736;30.568;2023-11-19T04:51:23;101503.00;;;-5.20
73937;BMP180;59249;59.736;30.568;2023-11-19T04:53:53;101512.00;;;-5.30
73937;BMP180;59249;59.736;30.568;2023-11-19T04:56:23;101510.00;;;-5.20
73937;BMP180;59249;59.736;30.568;2023-11-19T04:58:53;101514.00;;;-5.30
73937;BMP180;59249;59.736;30.568;2023-11-19T05:01:22;101511.00;;;-5.30
73937;BMP180;59249;59.736;30.568;2023-11-19T05:03:51;101506.00;;;-5.30
73937;BMP180;59249;59.736;30.568;2023-11-19T05:06:19;101506.00;;;-5.30
73937;BMP180;59249;59.736;30.568;2023-11-19T05:08:48;101511.00;;;-5.30
73937;BMP180;59249;59.736;30.568;2023-11-19T05:11:18;101510.00;;;-5.30
73937;BMP180;59249;59.736;30.568;2023-11-19T05:13:47;101508.00;;;-5.30
73937;BMP180;59249;59.736;30.568;2023-11-19T05:16:17;101509.00;;;-5.30
73937;BMP180;59249;59.736;30.568;2023-11-19T05:18:46;101509.00;;;-5.30
73937;BMP180;59249;59.736;30.568;2023-11-19T05:21:15;101505.00;;;-5.30
73937;BMP180;59249;59.736;30.568;2023-11-19T05:23:44;101507.00;;;-5.20
73937;BMP180;59249;59.736;30.568;2023-11-19T05:26:19;101508.00;;;-5.20
73937;BMP180;59249;59.736;30.568;2023-11-19T05:28:48;101510.00;;;-5.20
73937;BMP180;59249;59.736;30.568;2023-11-19T05:31:18;101506.00;;;-5.20
73937;BMP180;59249;59.736;30.568;2023-11-19T05:33:47;101502.00;;;-5.20
73937;BMP180;59249;59.736;30.568;2023-11-19T05:36:27;101500.00;;;-5.30
73937;BMP180;59249;59.736;30.568;2023-11-19T05:39:31;101504.00;;;-5.30
73937;BMP180;59249;59.736;30.568;2023-11-19T05:42:02;101505.00;;;-5.30
73937;BMP180;59249;59.736;30.568;2023-11-19T05:44:32;101500.00;;;-5.20
73937;BMP180;59249;59.736;30.568;2023-11-19T05:47:04;101498.00;;;-5.20
73937;BMP180;59249;59.736;30.568;2023-11-19T05:49:34;101492.00;;;-5.20
73937;BMP180;59249;59.736;30.568;2023-11-19T05:52:03;101492.00;;;-5.20
73937;BMP180;59249;59.736;30.568;2023-11-19T05:54:35;101489.00;;;-5.20
73937;BMP180;59249;59.736;30.568;2023-11-19T05:57:06;101505.00;;;-5.10
73937;BMP180;59249;59.736;30.568;2023-11-19T05:59:36;101499.00;;;-5.10
73937;BMP180;59249;59.736;30.568;2023-11-19T06:02:05;101500.00;;;-5.20
73937;BMP180;59249;59.736;30.568;2023-11-19T06:04:34;101503.00;;;-5.10
73937;BMP180;59249;59.736;30.568;2023-11-19T06:07:03;101497.00;;;-5.10
73937;BMP180;59249;59.736;30.568;2023-11-19T06:09:32;101494.00;;;-5.10
73937;BMP180;59249;59.736;30.568;2023-11-19T06:12:01;101502.00;;;-5.10
73937;BMP180;59249;59.736;30.568;2023-11-19T06:14:32;101500.00;;;-5.10
73937;BMP180;59249;59.736;30.568;2023-11-19T06:17:01;101503.00;;;-5.10
73937;BMP180;59249;59.736;30.568;2023-11-19T06:19:32;101486.00;;;-5.00
73937;BMP180;59249;59.736;30.568;2023-11-19T06:22:01;101490.00;;;-5.00
73937;BMP180;59249;59.736;30.568;2023-11-19T06:24:30;101491.00;;;-5.00
73937;BMP180;59249;59.736;30.568;2023-11-19T06:26:59;101496.00;;;-5.00
73937;BMP180;59249;59.736;30.568;2023-11-19T06:29:28;101502.00;;;-5.00
73937;BMP180;59249;59.736;30.568;2023-11-19T06:31:58;101498.00;;;-5.00
73937;BMP180;59249;59.736;30.568;2023-11-19T06:34:41;101496.00;;;-5.00
73937;BMP180;59249;59.736;30.568;2023-11-19T06:37:10;101486.00;;;-4.90
73937;BMP180;59249;59.736;30.568;2023-11-19T06:39:39;101491.00;;;-4.90
73937;BMP180;59249;59.736;30.568;2023-11-19T06:42:08;101480.00;;;-4.80
73937;BMP180;59249;59.736;30.568;2023-11-19T06:44:38;101489.00;;;-4.80
73937;BMP180;59249;59.736;30.568;2023-11-19T06:47:08;101493.00;;;-4.80
73937;BMP180;59249;59.736;30.568;2023-11-19T06:49:37;101489.00;;;-4.80
73937;BMP180;59249;59.736;30.568;2023-11-19T06:52:06;101490.00;;;-4.70
73937;BMP180;59249;59.736;30.568;2023-11-19T06:54:35;101485.00;;;-4.60
73937;BMP180;59249;59.736;30.568;2023-11-19T06:57:04;101484.00;;;-4.60
73937;BMP180;59249;59.736;30.568;2023-11-19T06:59:33;101486.00;;;-4.60
73937;BMP180;59249;59.736;30.568;2023-11-19T07:02:02;101495.00;;;-4.50
73937;BMP180;59249;59.736;30.568;2023-11-19T07:04:33;101485.00;;;-4.40
73937;BMP180;59249;59.736;30.568;2023-11-19T07:07:02;101477.00;;;-4.40
73937;BMP180;59249;59.736;30.568;2023-11-19T07:09:32;101478.00;;;-4.40
73937;BMP180;59249;59.736;30.568;2023-11-19T07:12:01;101482.00;;;-4.30
73937;BMP180;59249;59.736;30.568;2023-11-19T07:14:32;101485.00;;;-4.30
73937;BMP180;59249;59.736;30.568;2023-11-19T07:17:01;101483.00;;;-4.30
73937;BMP180;59249;59.736;30.568;2023-11-19T07:19:30;101480.00;;;-4.20
73937;BMP180;59249;59.736;30.568;2023-11-19T07:22:00;101482.00;;;-4.20
73937;BMP180;59249;59.736;30.568;2023-11-19T07:24:29;101478.00;;;-4.20
73937;BMP180;59249;59.736;30.568;2023-11-19T07:26:58;101481.00;;;-4.20
73937;BMP180;59249;59.736;30.568;2023-11-19T07:29:28;101474.00;;;-4.10
73937;BMP180;59249;59.736;30.568;2023-11-19T07:31:56;101477.00;;;-4.10
73937;BMP180;59249;59.736;30.568;2023-11-19T07:34:25;101472.00;;;-4.10
73937;BMP180;59249;59.736;30.568;2023-11-19T07:36:54;101475.00;;;-4.10
73937;BMP180;59249;59.736;30.568;2023-11-19T07:39:27;101473.00;;;-4.10
73937;BMP180;59249;59.736;30.568;2023-11-19T07:41:56;101476.00;;;-4.00
73937;BMP180;59249;59.736;30.568;2023-11-19T07:44:25;101468.00;;;-4.10
73937;BMP180;59249;59.736;30.568;2023-11-19T07:46:54;101469.00;;;-4.00
73937;BMP180;59249;59.736;30.568;2023-11-19T07:49:23;101470.00;;;-4.00
73937;BMP180;59249;59.736;30.568;2023-11-19T07:51:52;101467.00;;;-4.00
73937;BMP180;59249;59.736;30.568;2023-11-19T07:54:21;101472.00;;;-3.90
73937;BMP180;59249;59.736;30.568;2023-11-19T07:56:51;101472.00;;;-3.90
73937;BMP180;59249;59.736;30.568;2023-11-19T07:59:20;101470.00;;;-3.80
73937;BMP180;59249;59.736;30.568;2023-11-19T08:01:49;101481.00;;;-3.80
73937;BMP180;59249;59.736;30.568;2023-11-19T08:04:18;101477.00;;;-3.70
73937;BMP180;59249;59.736;30.568;2023-11-19T08:06:47;101475.00;;;-3.60
73937;BMP180;59249;59.736;30.568;2023-11-19T08:09:16;101474.00;;;-3.60
73937;BMP180;59249;59.736;30.568;2023-11-19T08:11:45;101483.00;;;-3.40
73937;BMP180;59249;59.736;30.568;2023-11-19T08:14:15;101464.00;;;-3.40
73937;BMP180;59249;59.736;30.568;2023-11-19T08:16:44;101472.00;;;-3.30
73937;BMP180;59249;59.736;30.568;2023-11-19T08:19:13;101461.00;;;-3.30
73937;BMP180;59249;59.736;30.568;2023-11-19T08:21:42;101467.00;;;-3.30
73937;BMP180;59249;59.736;30.568;2023-11-19T08:24:11;101467.00;;;-3.30
73937;BMP180;59249;59.736;30.568;2023-11-19T08:26:40;101464.00;;;-3.20
73937;BMP180;59249;59.736;30.568;2023-11-19T08:29:09;101457.00;;;-3.30
73937;BMP180;59249;59.736;30.568;2023-11-19T08:31:39;101466.00;;;-3.30
73937;BMP180;59249;59.736;30.568;2023-11-19T08:34:08;101461.00;;;-3.20
73937;BMP180;59249;59.736;30.568;2023-11-19T08:36:37;101459.00;;;-3.20
73937;BMP180;59249;59.736;30.568;2023-11-19T08:39:06;101462.00;;;-3.10
73937;BMP180;59249;59.736;30.568;2023-11-19T08:41:35;101455.00;;;-3.00
73937;BMP180;59249;59.736;30.568;2023-11-19T08:44:05;101466.00;;;-3.00
73937;BMP180;59249;59.736;30.568;2023-11-19T08:46:34;101464.00;;;-2.90
73937;BMP180;59249;59.736;30.568;2023-11-19T08:49:04;101445.00;;;-3.00
73937;BMP180;59249;59.736;30.568;2023-11-19T08:51:35;101462.00;;;-2.90
73937;BMP180;59249;59.736;30.568;2023-11-19T08:54:04;101456.00;;;-2.80
73937;BMP180;59249;59.736;30.568;2023-11-19T08:56:34;101448.00;;;-2.70
73937;BMP180;59249;59.736;30.568;2023-11-19T08:59:03;101452.00;;;-2.70
73937;BMP180;59249;59.736;30.568;2023-11-19T09:01:31;101444.00;;;-2.70
73937;BMP180;59249;59.736;30.568;2023-11-19T09:04:00;101453.00;;;-2.70
73937;BMP180;59249;59.736;30.568;2023-11-19T09:06:31;101455.00;;;-2.70
73937;BMP180;59249;59.736;30.568;2023-11-19T09:09:00;101450.00;;;-2.70
73937;BMP180;59249;59.736;30.568;2023-11-19T09:11:30;101440.00;;;-2.60
73937;BMP180;59249;59.736;30.568;2023-11-19T09:13:59;101448.00;;;-2.50
73937;BMP180;59249;59.736;30.568;2023-11-19T09:16:27;101442.00;;;-2.50
73937;BMP180;59249;59.736;30.568;2023-11-19T09:18:56;101441.00;;;-2.50
73937;BMP180;59249;59.736;30.568;2023-11-19T09:21:27;101437.00;;;-2.40
73937;BMP180;59249;59.736;30.568;2023-11-19T09:23:58;101443.00;;;-2.40
73937;BMP180;59249;59.736;30.568;2023-11-19T09:26:27;101436.00;;;-2.40
73937;BMP180;59249;59.736;30.568;2023-11-19T09:28:56;101442.00;;;-2.30
73937;BMP180;59249;59.736;30.568;2023-11-19T09:31:25;101440.00;;;-2.30
73937;BMP180;59249;59.736;30.568;2023-11-19T09:33:54;101435.00;;;-2.20
73937;BMP180;59249;59.736;30.568;2023-11-19T09:36:22;101438.00;;;-2.10
73937;BMP180;59249;59.736;30.568;2023-11-19T09:38:51;101427.00;;;-2.10
73937;BMP180;59249;59.736;30.568;2023-11-19T09:41:23;101429.00;;;-2.00
73937;BMP180;59249;59.736;30.568;2023-11-19T09:43:52;101427.00;;;-2.00
73937;BMP180;59249;59.736;30.568;2023-11-19T09:46:22;101434.00;;;-2.00
73937;BMP180;59249;59.736;30.568;2023-11-19T09:48:52;101438.00;;;-2.00
73937;BMP180;59249;59.736;30.568;2023-11-19T09:51:23;101434.00;;;-2.00
73937;BMP180;59249;59.736;30.568;2023-11-19T09:53:52;101425.00;;;-1.90
73937;BMP180;59249;59.736;30.568;2023-11-19T09:56:23;101423.00;;;-1.90
73937;BMP180;59249;59.736;30.568;2023-11-19T09:58:53;101426.00;;;-1.90
73937;BMP180;59249;59.736;30.568;2023-11-19T10:01:22;101423.00;;;-1.90
73937;BMP180;59249;59.736;30.568;2023-11-19T10:03:55;101412.00;;;-1.80
73937;BMP180;59249;59.736;30.568;2023-11-19T10:06:25;101417.00;;;-2.00
73937;BMP180;59249;59.736;30.568;2023-11-19T10:08:55;101410.00;;;-2.10
73937;BMP180;59249;59.736;30.568;2023-11-19T10:11:27;101409.00;;;-2.10
73937;BMP180;59249;59.736;30.568;2023-11-19T10:14:00;101408.00;;;-2.00
73937;BMP180;59249;59.736;30.568;2023-11-19T10:16:29;101416.00;;;-2.00
73937;BMP180;59249;59.736;30.568;2023-11-19T10:19:00;101406.00;;;-2.00
73937;BMP180;59249;59.736;30.568;2023-11-19T10:21:32;101408.00;;;-2.00
73937;BMP180;59249;59.736;30.568;2023-11-19T10:24:02;101404.00;;;-1.90
73937;BMP180;59249;59.736;30.568;2023-11-19T10:26:36;101404.00;;;-1.90
73937;BMP180;59249;59.736;30.568;2023-11-19T10:29:05;101418.00;;;-1.90
73937;BMP180;59249;59.736;30.568;2023-11-19T10:31:34;101406.00;;;-1.90
73937;BMP180;59249;59.736;30.568;2023-11-19T10:34:02;101411.00;;;-1.90
73937;BMP180;59249;59.736;30.568;2023-11-19T10:36:38;101405.00;;;-1.90
73937;BMP180;59249;59.736;30.568;2023-11-19T10:39:09;101414.00;;;-1.90
73937;BMP180;59249;59.736;30.568;2023-11-19T10:41:40;101407.00;;;-1.90
73937;BMP180;59249;59.736;30.568;2023-11-19T10:44:10;101405.00;;;-2.00
73937;BMP180;59249;59.736;30.568;2023-11-19T10:46:39;101403.00;;;-2.00
73937;BMP180;59249;59.736;30.568;2023-11-19T10:49:09;101407.00;;;-2.00
73937;BMP180;59249;59.736;30.568;2023-11-19T10:51:42;101413.00;;;-2.10
73937;BMP180;59249;59.736;30.568;2023-11-19T10:54:18;101399.00;;;-2.30
73937;BMP180;59249;59.736;30.568;2023-11-19T10:56:55;101408.00;;;-2.20
73937;BMP180;59249;59.736;30.568;2023-11-19T10:59:31;101402.00;;;-2.20
73937;BMP180;59249;59.736;30.568;2023-11-19T11:02:03;101397.00;;;-2.30
73937;BMP180;59249;59.736;30.568;2023-11-19T11:04:40;101404.00;;;-2.30
73937;BMP180;59249;59.736;30.568;2023-11-19T11:07:10;101400.00;;;-2.30
73937;BMP180;59249;59.736;30.568;2023-11-19T11:09:41;101394.00;;;-2.40
73937;BMP180;59249;59.736;30.568;2023-11-19T11:12:12;101393.00;;;-2.30
73937;BMP180;59249;59.736;30.568;2023-11-19T11:14:42;101393.00;;;-2.40
73937;BMP180;59249;59.736;30.568;2023-11-19T11:17:17;101400.00;;;-2.40
73937;BMP180;59249;59.736;30.568;2023-11-19T11:19:47;101393.00;;;-2.40
73937;BMP180;59249;59.736;30.568;2023-11-19T11:22:16;101400.00;;;-2.40
73937;BMP180;59249;59.736;30.568;2023-11-19T11:25:06;101402.00;;;-2.50
73937;BMP180;59249;59.736;30.568;2023-11-19T11:28:05;101400.00;;;-2.50
73937;BMP180;59249;59.736;30.568;2023-11-19T11:31:00;101400.00;;;-2.50
73937;BMP180;59249;59.736;30.568;2023-11-19T11:33:57;101403.00;;;-2.60
73937;BMP180;59249;59.736;30.568;2023-11-19T11:36:41;101389.00;;;-2.60
73937;BMP180;59249;59.736;30.568;2023-11-19T11:39:16;101393.00;;;-2.60
73937;BMP180;59249;59.736;30.568;2023-11-19T11:41:46;101393.00;;;-2.60
73937;BMP180;59249;59.736;30.568;2023-11-19T11:44:16;101404.00;;;-2.60
73937;BMP180;59249;59.736;30.568;2023-11-19T11:46:54;101392.00;;;-2.70
73937;BMP180;59249;59.736;30.568;2023-11-19T11:49:27;101388.00;;;-2.70
73937;BMP180;59249;59.736;30.568;2023-11-19T11:52:01;101385.00;;;-2.70
73937;BMP180;59249;59.736;30.568;2023-11-19T11:54:31;101380.00;;;-2.80
73937;BMP180;59249;59.736;30.568;2023-11-19T11:57:07;101373.00;;;-2.90
73937;BMP180;59249;59.736;30.568;2023-11-19T11:59:47;101371.00;;;-2.90
73937;BMP180;59249;59.736;30.568;2023-11-19T12:02:18;101371.00;;;-2.90
73937;BMP180;59249;59.736;30.568;2023-11-19T12:04:49;101377.00;;;-3.00
73937;BMP180;59249;59.736;30.568;2023-11-19T12:07:24;101372.00;;;-3.00
73937;BMP180;59249;59.736;30.568;2023-11-19T12:10:05;101366.00;;;-3.10
73937;BMP180;59249;59.736;30.568;2023-11-19T12:12:35;101359.00;;;-3.10
73937;BMP180;59249;59.736;30.568;2023-11-19T12:15:09;101366.00;;;-3.10
73937;BMP180;59249;59.736;30.568;2023-11-19T12:17:42;101368.00;;;-3.20
73937;BMP180;59249;59.736;30.568;2023-11-19T12:20:12;101357.00;;;-3.20
73937;BMP180;59249;59.736;30.568;2023-11-19T12:23:04;101357.00;;;-3.30
73937;BMP180;59249;59.736;30.568;2023-11-19T12:25:35;101350.00;;;-3.30
73937;BMP180;59249;59.736;30.568;2023-11-19T12:28:03;101345.00;;;-3.40
73937;BMP180;59249;59.736;30.568;2023-11-19T12:30:34;101336.00;;;-3.40
73937;BMP180;59249;59.736;30.568;2023-11-19T12:33:07;101342.00;;;-3.60
73937;BMP180;59249;59.736;30.568;2023-11-19T12:35:38;101336.00;;;-3.50
73937;BMP180;59249;59.736;30.568;2023-11-19T12:38:08;101335.00;;;-3.60
73937;BMP180;59249;59.736;30.568;2023-11-19T12:40:46;101339.00;;;-3.60
73937;BMP180;59249;59.736;30.568;2023-11-19T12:43:21;101344.00;;;-3.70
73937;BMP180;59249;59.736;30.568;2023-11-19T12:45:52;101348.00;;;-3.80
73937;BMP180;59249;59.736;30.568;2023-11-19T12:48:21;101355.00;;;-3.80
73937;BMP180;59249;59.736;30.568;2023-11-19T12:50:53;101343.00;;;-3.90
73937;BMP180;59249;59.736;30.568;2023-11-19T12:53:25;101336.00;;;-3.90
73937;BMP180;59249;59.736;30.568;2023-11-19T12:55:55;101340.00;;;-3.90
73937;BMP180;59249;59.736;30.568;2023-11-19T12:58:31;101347.00;;;-4.00
73937;BMP180;59249;59.736;30.568;2023-11-19T13:01:05;101336.00;;;-4.00
73937;BMP180;59249;59.736;30.568;2023-11-19T13:03:36;101341.00;;;-4.10
73937;BMP180;59249;59.736;30.568;2023-11-19T13:06:12;101330.00;;;-4.20
73937;BMP180;59249;59.736;30.568;2023-11-19T13:08:44;101334.00;;;-4.20
73937;BMP180;59249;59.736;30.568;2023-11-19T13:11:30;101331.00;;;-4.30
73937;BMP180;59249;59.736;30.568;2023-11-19T13:14:00;101324.00;;;-4.40
73937;BMP180;59249;59.736;30.568;2023-11-19T13:16:33;101334.00;;;-4.40
73937;BMP180;59249;59.736;30.568;2023-11-19T13:19:02;101336.00;;;-4.50
73937;BMP180;59249;59.736;30.568;2023-11-19T13:21:31;101328.00;;;-4.50
73937;BMP180;59249;59.736;30.568;2023-11-19T13:24:01;101328.00;;;-4.60
73937;BMP180;59249;59.736;30.568;2023-11-19T13:26:29;101319.00;;;-4.60
73937;BMP180;59249;59.736;30.568;2023-11-19T13:28:58;101324.00;;;-4.60
73937;BMP180;59249;59.736;30.568;2023-11-19T13:31:27;101329.00;;;-4.70
73937;BMP180;59249;59.736;30.568;2023-11-19T13:33:57;101330.00;;;-4.70
73937;BMP180;59249;59.736;30.568;2023-11-19T13:36:26;101333.00;;;-4.80
73937;BMP180;59249;59.736;30.568;2023-11-19T13:38:55;101323.00;;;-4.80
73937;BMP180;59249;59.736;30.568;2023-11-19T13:41:27;101320.00;;;-4.80
73937;BMP180;59249;59.736;30.568;2023-11-19T13:43:56;101323.00;;;-4.90
73937;BMP180;59249;59.736;30.568;2023-11-19T13:46:25;101310.00;;;-4.90
73937;BMP180;59249;59.736;30.568;2023-11-19T13:48:54;101307.00;;;-5.00
73937;BMP180;59249;59.736;30.568;2023-11-19T13:51:25;101300.00;;;-5.00
73937;BMP180;59249;59.736;30.568;2023-11-19T13:53:54;101305.00;;;-5.10
73937;BMP180;59249;59.736;30.568;2023-11-19T13:56:23;101304.00;;;-5.10
73937;BMP180;59249;59.736;30.568;2023-11-19T13:58:51;101305.00;;;-5.10
73937;BMP180;59249;59.736;30.568;2023-11-19T14:01:20;101306.00;;;-5.10
73937;BMP180;59249;59.736;30.568;2023-11-19T14:03:52;101290.00;;;-5.20